createdAt,value
2022-07-26T00:00:06.391Z,23.20
2022-07-26T00:02:33.836Z,87.70
2022-07-26T00:05:01.225Z,88.70
2022-07-26T00:07:36.571Z,14.77
2022-07-26T00:10:06.448Z,64.43
2022-07-26T00:12:33.986Z,15.50
2022-07-26T00:15:03.933Z,12.00
2022-07-26T00:17:31.271Z,12.13
2022-07-26T00:19:58.802Z,12.02
2022-07-26T00:22:34.950Z,12.63
2022-07-26T00:25:07.253Z,10.52
2022-07-26T00:27:37.535Z,11.82
2022-07-26T00:30:07.569Z,11.50
2022-07-26T00:32:34.965Z,12.43
2022-07-26T00:35:02.435Z,12.20
2022-07-26T00:37:29.968Z,8.23
2022-07-26T00:40:00.618Z,8.75
2022-07-26T00:42:28.116Z,11.38
2022-07-26T00:44:55.490Z,7.70
2022-07-26T00:47:22.942Z,9.25
2022-07-26T00:49:50.655Z,6.30
2022-07-26T00:52:18.310Z,9.38
2022-07-26T00:54:46.910Z,6.57
2022-07-26T00:57:17.831Z,7.53
2022-07-26T00:59:45.348Z,6.85
2022-07-26T01:02:12.691Z,6.38
2022-07-26T01:04:44.660Z,6.97
2022-07-26T01:07:14.847Z,6.53
2022-07-26T01:09:43.536Z,86.13
2022-07-26T01:12:11.271Z,6.47
2022-07-26T01:14:42.005Z,85.60
2022-07-26T01:17:09.788Z,37.03
2022-07-26T01:19:37.049Z,56.88
2022-07-26T01:22:04.504Z,6.10
2022-07-26T01:24:31.826Z,6.60
2022-07-26T01:26:59.406Z,85.57
2022-07-26T01:29:35.415Z,84.35
2022-07-26T01:32:05.224Z,85.90
2022-07-26T01:34:35.285Z,83.22
2022-07-26T01:37:03.376Z,81.53
2022-07-26T01:39:32.464Z,72.90
2022-07-26T01:41:59.847Z,82.38
2022-07-26T01:44:27.208Z,76.80
2022-07-26T01:46:55.382Z,6.45
2022-07-26T01:49:22.792Z,6.45
2022-07-26T01:51:50.207Z,6.00
2022-07-26T01:54:22.246Z,8.75
2022-07-26T01:56:52.037Z,6.22
2022-07-26T01:59:19.387Z,6.25
2022-07-26T02:01:46.891Z,5.18
2022-07-26T02:04:34.177Z,71.35
2022-07-26T02:07:05.257Z,55.80
2022-07-26T02:09:40.793Z,78.78
2022-07-26T02:12:08.677Z,69.85
2022-07-26T02:14:38.645Z,80.45
2022-07-26T02:17:06.544Z,75.47
2022-07-26T02:19:33.979Z,78.43
2022-07-26T02:22:04.281Z,78.55
2022-07-26T02:24:34.398Z,82.55
2022-07-26T02:27:02.384Z,6.93
2022-07-26T02:29:32.311Z,5.85
2022-07-26T02:32:00.120Z,5.00
2022-07-26T02:34:30.992Z,14.48
2022-07-26T02:37:01.989Z,27.48
2022-07-26T02:39:29.749Z,75.28
2022-07-26T02:41:58.898Z,71.32
2022-07-26T02:44:27.841Z,6.57
2022-07-26T02:46:55.510Z,45.17
2022-07-26T02:49:22.974Z,6.85
2022-07-26T02:51:50.511Z,72.75
2022-07-26T02:54:17.863Z,78.75
2022-07-26T02:56:45.156Z,85.05
2022-07-26T02:59:12.455Z,7.95
2022-07-26T03:01:40.241Z,83.32
2022-07-26T03:04:08.453Z,13.68
2022-07-26T03:06:36.120Z,6.05
2022-07-26T03:09:04.059Z,6.28
2022-07-26T03:11:31.478Z,5.38
2022-07-26T03:13:59.110Z,5.85
2022-07-26T03:16:29.583Z,4.82
2022-07-26T03:18:58.032Z,5.53
2022-07-26T03:21:25.365Z,5.32
2022-07-26T03:23:53.670Z,6.07
2022-07-26T03:26:22.622Z,5.85
2022-07-26T03:28:50.048Z,7.10
2022-07-26T03:31:17.431Z,5.55
2022-07-26T03:33:44.828Z,5.63
2022-07-26T03:36:15.504Z,7.82
2022-07-26T03:38:43.920Z,74.97
2022-07-26T03:41:18.551Z,75.70
2022-07-26T03:43:46.004Z,58.15
2022-07-26T03:46:13.326Z,62.65
2022-07-26T03:48:40.839Z,24.48
2022-07-26T03:51:08.203Z,83.07
2022-07-26T03:53:35.669Z,75.45
2022-07-26T03:56:21.733Z,69.53
2022-07-26T03:58:50.536Z,81.55
2022-07-26T04:01:18.083Z,84.03
2022-07-26T04:03:47.756Z,6.50
2022-07-26T04:06:15.400Z,5.78
2022-07-26T04:08:43.211Z,5.45
2022-07-26T04:11:10.992Z,80.93
2022-07-26T04:13:38.585Z,7.45
2022-07-26T04:16:07.008Z,81.47
2022-07-26T04:18:34.835Z,80.13
2022-07-26T04:21:02.921Z,6.50
2022-07-26T04:23:30.318Z,85.15
2022-07-26T04:25:57.796Z,79.07
2022-07-26T04:28:28.972Z,83.03
2022-07-26T04:31:00.343Z,77.63
2022-07-26T04:33:29.783Z,81.97
2022-07-26T04:35:57.066Z,78.32
2022-07-26T04:38:24.482Z,43.55
2022-07-26T04:40:51.996Z,71.65
2022-07-26T04:43:20.123Z,86.15
2022-07-26T04:45:48.108Z,81.03
2022-07-26T04:48:17.873Z,61.72
2022-07-26T04:50:45.283Z,60.15
2022-07-26T04:53:13.538Z,33.72
2022-07-26T04:55:42.071Z,13.65
2022-07-26T04:58:13.140Z,14.27
2022-07-26T05:01:08.414Z,67.93
2022-07-26T05:03:28.296Z,102.78
2022-07-26T05:05:55.806Z,100.75
2022-07-26T05:08:23.387Z,71.95
2022-07-26T05:10:55.444Z,71.80
2022-07-26T05:13:30.295Z,100.95
2022-07-26T05:15:59.705Z,111.70
2022-07-26T05:18:29.971Z,115.82
2022-07-26T05:20:59.659Z,136.70
2022-07-26T05:23:26.886Z,111.47
2022-07-26T05:25:55.627Z,89.85
2022-07-26T05:28:24.499Z,91.03
2022-07-26T05:30:52.321Z,111.22
2022-07-26T05:33:21.729Z,129.93
2022-07-26T05:35:49.282Z,129.75
2022-07-26T05:38:20.986Z,104.43
2022-07-26T05:40:50.746Z,80.72
2022-07-26T05:43:19.183Z,112.18
2022-07-26T05:45:46.964Z,114.90
2022-07-26T05:48:14.419Z,123.55
2022-07-26T05:50:42.859Z,109.95
2022-07-26T05:53:10.480Z,122.30
2022-07-26T05:55:40.971Z,135.95
2022-07-26T05:58:08.539Z,134.38
2022-07-26T06:00:38.165Z,115.70
2022-07-26T06:03:22.237Z,143.23
2022-07-26T06:05:57.793Z,143.82
2022-07-26T06:08:26.861Z,140.05
2022-07-26T06:10:55.394Z,143.95
2022-07-26T06:13:22.962Z,153.70
2022-07-26T06:15:52.596Z,143.13
2022-07-26T06:18:20.032Z,128.63
2022-07-26T06:20:48.716Z,83.53
2022-07-26T06:23:16.123Z,108.10
2022-07-26T06:25:43.431Z,97.38
2022-07-26T06:28:11.595Z,94.72
2022-07-26T06:30:40.032Z,48.13
2022-07-26T06:33:09.702Z,72.38
2022-07-26T06:35:39.136Z,106.65
2022-07-26T06:38:07.301Z,121.90
2022-07-26T06:40:35.163Z,108.25
2022-07-26T06:43:04.720Z,113.07
2022-07-26T06:45:33.302Z,105.55
2022-07-26T06:48:00.992Z,73.45
2022-07-26T06:50:28.505Z,125.88
2022-07-26T06:52:56.008Z,312.27
2022-07-26T06:55:23.308Z,215.18
2022-07-26T06:57:50.778Z,199.77
2022-07-26T07:00:18.527Z,195.32
2022-07-26T07:02:46.172Z,168.85
2022-07-26T07:05:13.634Z,156.82
2022-07-26T07:07:42.228Z,186.50
2022-07-26T07:10:10.845Z,167.38
2022-07-26T07:12:44.959Z,158.48
2022-07-26T07:15:12.979Z,184.85
2022-07-26T07:17:40.310Z,165.95
2022-07-26T07:20:08.057Z,171.35
2022-07-26T07:22:35.330Z,173.85
2022-07-26T07:25:03.119Z,182.20
2022-07-26T07:27:33.784Z,188.32
2022-07-26T07:30:01.085Z,538.38
2022-07-26T07:32:28.637Z,539.03
2022-07-26T07:34:56.051Z,522.72
2022-07-26T07:37:23.620Z,348.75
2022-07-26T07:39:51.344Z,293.80
2022-07-26T07:42:19.631Z,332.67
2022-07-26T07:44:47.711Z,297.27
2022-07-26T07:47:15.194Z,274.58
2022-07-26T07:49:42.854Z,280.13
2022-07-26T07:52:10.229Z,277.73
2022-07-26T07:54:37.549Z,277.98
2022-07-26T07:57:07.401Z,259.48
2022-07-26T07:59:37.107Z,271.83
2022-07-26T08:02:07.346Z,279.35
2022-07-26T08:04:34.681Z,311.75
2022-07-26T08:07:02.590Z,336.55
2022-07-26T08:09:29.992Z,305.65
2022-07-26T08:12:01.626Z,348.90
2022-07-26T08:14:29.755Z,334.60
2022-07-26T08:16:57.435Z,378.05
2022-07-26T08:19:41.424Z,431.17
2022-07-26T08:22:11.729Z,452.65
2022-07-26T08:24:40.721Z,441.95
2022-07-26T08:27:08.315Z,451.15
2022-07-26T08:29:39.302Z,471.13
2022-07-26T08:32:07.162Z,441.83
2022-07-26T08:34:34.837Z,462.88
2022-07-26T08:37:18.280Z,687.42
2022-07-26T08:42:22.443Z,826.55
2022-07-26T08:44:51.634Z,831.15
2022-07-26T08:47:36.281Z,846.50
2022-07-26T08:50:09.299Z,883.22
2022-07-26T08:52:41.945Z,958.90
2022-07-26T08:55:13.720Z,881.65
2022-07-26T08:57:43.695Z,876.75
2022-07-26T09:00:25.560Z,906.35
2022-07-26T09:02:53.880Z,882.85
2022-07-26T09:05:37.181Z,895.97
2022-07-26T09:08:25.645Z,902.63
2022-07-26T09:10:58.159Z,904.30
2022-07-26T09:13:51.492Z,935.17
2022-07-26T09:16:21.233Z,963.50
2022-07-26T09:18:48.759Z,996.95
2022-07-26T09:21:36.518Z,999.90
2022-07-26T09:24:06.464Z,999.90
2022-07-26T09:26:33.975Z,999.90
2022-07-26T09:29:13.062Z,999.90
2022-07-26T09:31:40.956Z,999.90
2022-07-26T09:34:08.972Z,999.90
2022-07-26T09:36:51.862Z,999.90
2022-07-26T09:39:34.191Z,875.83
2022-07-26T09:42:27.316Z,546.85
2022-07-26T09:44:57.419Z,539.22
2022-07-26T09:47:40.403Z,552.78
2022-07-26T09:50:31.171Z,999.90
2022-07-26T09:53:00.091Z,999.90
2022-07-26T09:55:34.083Z,999.90
2022-07-26T09:58:10.624Z,999.90
2022-07-26T10:00:38.086Z,999.90
2022-07-26T10:03:05.464Z,999.90
2022-07-26T10:05:34.273Z,999.90
2022-07-26T10:08:01.982Z,999.90
2022-07-26T10:10:31.427Z,999.90
2022-07-26T10:13:03.013Z,999.90
2022-07-26T10:15:46.795Z,999.90
2022-07-26T10:18:36.421Z,999.90
2022-07-26T10:21:27.568Z,970.35
2022-07-26T10:23:57.773Z,944.30
2022-07-26T10:26:34.161Z,729.70
2022-07-26T10:29:19.304Z,720.70
2022-07-26T10:32:14.937Z,727.20
2022-07-26T10:34:42.771Z,713.83
2022-07-26T10:37:25.915Z,973.30
2022-07-26T10:40:16.913Z,999.90
2022-07-26T10:42:45.316Z,741.83
2022-07-26T10:45:22.165Z,731.50
2022-07-26T10:48:18.464Z,725.90
2022-07-26T10:50:51.615Z,725.40
2022-07-26T10:53:23.524Z,703.15
2022-07-26T10:55:58.668Z,685.65
2022-07-26T10:58:27.447Z,660.40
2022-07-26T11:01:03.484Z,641.35
2022-07-26T11:03:42.052Z,605.03
2022-07-26T11:06:11.574Z,596.47
2022-07-26T11:08:38.979Z,619.88
2022-07-26T11:11:06.475Z,550.22
2022-07-26T11:13:36.629Z,604.65
2022-07-26T11:16:08.747Z,584.13
2022-07-26T11:18:42.162Z,557.25
2022-07-26T11:21:16.263Z,596.40
2022-07-26T11:23:46.273Z,562.67
2022-07-26T11:26:16.357Z,580.97
2022-07-26T11:29:06.281Z,969.80
2022-07-26T11:31:50.711Z,578.17
2022-07-26T11:34:28.649Z,553.03
2022-07-26T11:36:58.637Z,648.15
2022-07-26T11:39:34.813Z,691.05
2022-07-26T11:42:06.024Z,584.05
2022-07-26T11:44:34.203Z,600.55
2022-07-26T11:47:14.729Z,573.17
2022-07-26T11:49:52.825Z,614.72
2022-07-26T11:52:31.628Z,957.60
2022-07-26T11:54:59.547Z,797.33
2022-07-26T11:57:32.007Z,901.83
2022-07-26T12:00:01.710Z,920.53
2022-07-26T12:02:39.060Z,999.90
2022-07-26T12:05:19.779Z,694.83
2022-07-26T12:08:00.416Z,999.90
2022-07-26T12:10:29.170Z,847.95
2022-07-26T12:13:18.716Z,971.97
2022-07-26T12:15:51.899Z,653.63
2022-07-26T12:18:27.895Z,868.80
2022-07-26T12:21:06.820Z,638.13
2022-07-26T12:23:43.175Z,683.70
2022-07-26T12:26:31.107Z,674.28
2022-07-26T12:29:19.093Z,855.40
2022-07-26T12:31:47.556Z,871.03
2022-07-26T12:34:22.591Z,999.90
2022-07-26T12:36:50.145Z,952.00
2022-07-26T12:39:24.248Z,947.83
2022-07-26T12:41:52.679Z,988.78
2022-07-26T12:44:23.199Z,906.97
2022-07-26T12:46:55.898Z,999.90
2022-07-26T12:49:24.780Z,852.65
2022-07-26T12:51:52.928Z,984.55
2022-07-26T12:54:27.761Z,943.67
2022-07-26T12:56:59.825Z,999.90
2022-07-26T12:59:27.637Z,983.00
2022-07-26T13:01:57.430Z,842.70
2022-07-26T13:04:25.118Z,884.78
2022-07-26T13:06:52.584Z,929.08
2022-07-26T13:09:25.594Z,942.08
2022-07-26T13:12:02.280Z,999.45
2022-07-26T13:14:29.872Z,997.08
2022-07-26T13:16:59.936Z,948.00
2022-07-26T13:19:29.529Z,969.50
2022-07-26T13:21:58.714Z,948.63
2022-07-26T13:24:27.738Z,969.50
2022-07-26T13:26:57.404Z,966.25
2022-07-26T13:29:28.837Z,967.30
2022-07-26T13:32:00.316Z,934.92
2022-07-26T13:34:34.923Z,961.95
2022-07-26T13:37:06.973Z,966.75
2022-07-26T13:39:35.938Z,951.03
2022-07-26T13:42:03.924Z,965.50
2022-07-26T13:44:31.383Z,959.28
2022-07-26T13:47:02.344Z,932.63
2022-07-26T13:49:32.403Z,907.35
2022-07-26T13:52:01.742Z,922.33
2022-07-26T13:54:34.856Z,902.00
2022-07-26T13:57:04.459Z,922.40
2022-07-26T13:59:31.828Z,881.47
2022-07-26T14:02:02.127Z,834.67
2022-07-26T14:04:31.078Z,867.45
2022-07-26T14:06:58.486Z,831.70
2022-07-26T14:09:26.012Z,829.00
2022-07-26T14:11:53.891Z,834.45
2022-07-26T14:14:21.775Z,825.58
2022-07-26T14:16:49.606Z,839.28
2022-07-26T14:19:17.903Z,837.72
2022-07-26T14:21:47.494Z,873.83
2022-07-26T14:24:29.022Z,855.70
2022-07-26T14:26:59.272Z,829.72
2022-07-26T14:29:27.903Z,873.78
2022-07-26T14:31:55.450Z,841.67
2022-07-26T14:34:23.057Z,801.72
2022-07-26T14:36:53.500Z,811.55
2022-07-26T14:39:21.274Z,801.72
2022-07-26T14:41:51.899Z,824.83
2022-07-26T14:44:21.712Z,806.90
2022-07-26T14:46:51.922Z,834.65
2022-07-26T14:49:19.657Z,800.35
2022-07-26T14:51:48.017Z,781.08
2022-07-26T14:54:17.069Z,790.53
2022-07-26T14:56:45.201Z,809.05
2022-07-26T14:59:12.680Z,817.03
2022-07-26T15:01:40.060Z,846.53
2022-07-26T15:04:07.766Z,856.95
2022-07-26T15:06:35.787Z,870.80
2022-07-26T15:09:04.510Z,892.78
2022-07-26T15:11:34.700Z,903.03
2022-07-26T15:14:06.110Z,864.38
2022-07-26T15:16:34.084Z,808.88
2022-07-26T15:19:01.570Z,816.42
2022-07-26T15:21:29.006Z,814.28
2022-07-26T15:23:56.345Z,805.95
2022-07-26T15:26:23.816Z,827.70
2022-07-26T15:28:54.016Z,835.67
2022-07-26T15:31:36.432Z,835.25
2022-07-26T15:34:09.336Z,827.72
2022-07-26T15:36:37.127Z,835.60
2022-07-26T15:39:18.244Z,830.08
2022-07-26T15:41:47.564Z,812.47
2022-07-26T15:44:20.125Z,818.30
2022-07-26T15:46:51.708Z,819.50
2022-07-26T15:49:19.474Z,821.83
2022-07-26T15:51:48.802Z,805.95
2022-07-26T15:54:16.617Z,813.70
2022-07-26T15:56:44.707Z,807.20
2022-07-26T15:59:12.791Z,804.05
2022-07-26T16:01:41.621Z,823.00
2022-07-26T16:04:09.450Z,807.28
2022-07-26T16:06:37.136Z,770.90
2022-07-26T16:09:18.673Z,791.95
2022-07-26T16:11:50.245Z,786.55
2022-07-26T16:14:18.172Z,782.78
2022-07-26T16:16:45.987Z,798.28
2022-07-26T16:19:13.958Z,791.88
2022-07-26T16:21:41.716Z,795.47
2022-07-26T16:24:09.519Z,796.70
2022-07-26T16:26:38.195Z,800.92
2022-07-26T16:29:06.154Z,795.85
2022-07-26T16:31:33.923Z,794.47
2022-07-26T16:34:01.611Z,786.50
2022-07-26T16:36:29.137Z,783.22
2022-07-26T16:38:56.542Z,782.10
2022-07-26T16:41:26.097Z,785.35
2022-07-26T16:43:56.316Z,798.35
2022-07-26T16:46:24.575Z,781.75
2022-07-26T16:48:52.554Z,776.00
2022-07-26T16:51:21.145Z,804.20
2022-07-26T16:53:54.264Z,798.10
2022-07-26T16:56:21.805Z,801.35
2022-07-26T16:58:49.224Z,793.67
2022-07-26T17:01:16.860Z,779.25
2022-07-26T17:03:44.382Z,767.80
2022-07-26T17:06:12.284Z,773.45
2022-07-26T17:08:41.130Z,761.63
2022-07-26T17:11:08.620Z,774.08
2022-07-26T17:13:36.245Z,794.83
2022-07-26T17:16:05.341Z,780.97
2022-07-26T17:18:38.590Z,789.38
2022-07-26T17:21:07.942Z,800.43
2022-07-26T17:23:38.807Z,775.38
2022-07-26T17:26:06.439Z,773.75
2022-07-26T17:28:34.019Z,794.00
2022-07-26T17:31:02.724Z,788.70
2022-07-26T17:33:30.230Z,779.83
2022-07-26T17:35:58.785Z,771.50
2022-07-26T17:38:31.080Z,758.70
2022-07-26T17:40:58.442Z,787.60
2022-07-26T17:43:36.445Z,791.75
2022-07-26T17:46:04.599Z,815.60
2022-07-26T17:48:32.143Z,825.30
2022-07-26T17:50:59.616Z,788.33
2022-07-26T17:53:34.066Z,764.10
2022-07-26T17:56:02.921Z,777.42
2022-07-26T17:58:30.324Z,786.80
2022-07-26T18:00:59.337Z,806.63
2022-07-26T18:03:26.757Z,825.92
2022-07-26T18:05:54.356Z,772.70
2022-07-26T18:08:27.213Z,816.60
2022-07-26T18:10:56.135Z,822.58
2022-07-26T18:13:24.472Z,810.88
2022-07-26T18:15:52.346Z,728.50
2022-07-26T18:18:19.954Z,745.85
2022-07-26T18:20:47.581Z,737.60
2022-07-26T18:23:14.965Z,757.83
2022-07-26T18:25:42.724Z,742.88
2022-07-26T18:28:10.396Z,751.60
2022-07-26T18:30:38.371Z,764.28
2022-07-26T18:33:06.460Z,767.33
2022-07-26T18:35:34.357Z,756.58
2022-07-26T18:38:02.034Z,781.15
2022-07-26T18:40:29.608Z,806.35
2022-07-26T18:43:01.299Z,793.33
2022-07-26T18:45:28.903Z,841.75
2022-07-26T18:47:56.523Z,806.85
2022-07-26T18:50:24.111Z,779.53
2022-07-26T18:52:51.970Z,764.53
2022-07-26T18:55:19.542Z,780.40
2022-07-26T18:57:47.150Z,796.60
2022-07-26T19:00:19.266Z,777.88
2022-07-26T19:02:47.566Z,756.50
2022-07-26T19:05:16.705Z,788.80
2022-07-26T19:07:44.691Z,762.47
2022-07-26T19:10:12.708Z,754.35
2022-07-26T19:12:43.314Z,712.67
2022-07-26T19:15:11.168Z,713.38
2022-07-26T19:17:38.788Z,731.70
2022-07-26T19:20:07.420Z,739.20
2022-07-26T19:22:35.627Z,719.80
2022-07-26T19:25:04.260Z,715.50
2022-07-26T19:27:32.071Z,735.45
2022-07-26T19:29:59.543Z,721.95
2022-07-26T19:32:30.449Z,780.25
2022-07-26T19:35:01.348Z,829.38
2022-07-26T19:37:28.910Z,751.08
2022-07-26T19:40:00.430Z,795.60
2022-07-26T19:42:30.781Z,787.17
2022-07-26T19:44:58.713Z,796.53
2022-07-26T19:47:26.921Z,888.15
2022-07-26T19:49:54.479Z,787.40
2022-07-26T19:52:21.897Z,721.33
2022-07-26T19:54:51.740Z,715.97
2022-07-26T19:57:20.063Z,748.22
2022-07-26T19:59:48.003Z,697.35
2022-07-26T20:02:15.793Z,716.40
2022-07-26T20:04:46.486Z,777.00
2022-07-26T20:07:19.562Z,752.70
2022-07-26T20:09:49.387Z,717.97
2022-07-26T20:12:17.822Z,765.20
2022-07-26T20:14:45.736Z,732.08
2022-07-26T20:17:13.765Z,757.25
2022-07-26T20:19:43.304Z,758.17
2022-07-26T20:22:11.568Z,775.58
2022-07-26T20:24:41.719Z,846.88
2022-07-26T20:27:09.234Z,812.35
2022-07-26T20:29:37.089Z,824.53
2022-07-26T20:32:04.870Z,839.17
2022-07-26T20:34:33.013Z,812.53
2022-07-26T20:37:00.506Z,823.00
2022-07-26T20:39:28.118Z,797.42
2022-07-26T20:41:58.174Z,783.33
2022-07-26T20:44:28.429Z,751.72
2022-07-26T20:46:56.288Z,767.53
2022-07-26T20:49:23.841Z,739.38
2022-07-26T20:51:51.432Z,810.45
2022-07-26T20:54:18.933Z,817.88
2022-07-26T20:56:46.471Z,832.72
2022-07-26T20:59:14.209Z,781.88
2022-07-26T21:01:44.054Z,781.30
2022-07-26T21:04:13.224Z,755.33
2022-07-26T21:06:40.656Z,730.45
2022-07-26T21:09:09.643Z,786.03
2022-07-26T21:11:37.865Z,867.30
2022-07-26T21:14:05.788Z,865.33
2022-07-26T21:16:33.480Z,846.30
2022-07-26T21:19:02.333Z,818.38
2022-07-26T21:21:29.783Z,813.67
2022-07-26T21:23:57.308Z,753.13
2022-07-26T21:26:24.926Z,722.30
2022-07-26T21:28:52.684Z,737.75
2022-07-26T21:31:21.239Z,672.03
2022-07-26T21:33:48.738Z,688.03
2022-07-26T21:36:18.709Z,697.63
2022-07-26T21:38:46.182Z,704.08
2022-07-26T21:41:14.002Z,709.95
2022-07-26T21:43:42.202Z,745.20
2022-07-26T21:46:12.764Z,778.28
2022-07-26T21:48:41.038Z,795.20
2022-07-26T21:51:08.652Z,820.72
2022-07-26T21:53:36.334Z,859.42
2022-07-26T21:56:06.759Z,869.33
2022-07-26T21:58:36.892Z,857.08
2022-07-26T22:01:11.222Z,846.88
2022-07-26T22:03:40.649Z,848.80
2022-07-26T22:06:09.255Z,850.45
2022-07-26T22:08:37.595Z,836.60
2022-07-26T22:11:05.671Z,716.28
2022-07-26T22:13:33.165Z,783.88
2022-07-26T22:16:00.937Z,763.95
2022-07-26T22:18:28.649Z,781.20
2022-07-26T22:20:56.156Z,803.78
2022-07-26T22:23:30.159Z,853.63
2022-07-26T22:25:59.941Z,841.40
2022-07-26T22:28:27.535Z,853.38
2022-07-26T22:30:55.480Z,872.28
2022-07-26T22:33:23.770Z,795.28
2022-07-26T22:35:53.736Z,780.47
2022-07-26T22:38:21.823Z,809.33
2022-07-26T22:40:49.750Z,813.05
2022-07-26T22:43:17.208Z,805.90
2022-07-26T22:45:44.894Z,762.63
2022-07-26T22:48:12.503Z,820.28
2022-07-26T22:50:40.234Z,788.70
2022-07-26T22:53:07.833Z,815.33
2022-07-26T22:55:37.877Z,787.83
2022-07-26T22:58:05.708Z,793.58
2022-07-26T23:00:33.412Z,815.80
2022-07-26T23:03:00.856Z,747.80
2022-07-26T23:05:45.310Z,686.95
2022-07-26T23:08:46.383Z,675.58
2022-07-26T23:11:03.264Z,689.60
2022-07-26T23:13:30.691Z,681.63
2022-07-26T23:16:00.842Z,673.78
2022-07-26T23:18:30.743Z,693.22
2022-07-26T23:20:58.906Z,705.83
2022-07-26T23:23:29.516Z,724.78
2022-07-26T23:25:58.818Z,726.58
2022-07-26T23:28:37.056Z,781.03
2022-07-26T23:31:11.881Z,781.80
2022-07-26T23:33:51.301Z,837.20
2022-07-26T23:36:25.252Z,863.13
2022-07-26T23:38:53.898Z,876.45
2022-07-26T23:41:23.164Z,442.00
2022-07-26T23:43:51.392Z,501.15
2022-07-26T23:46:18.961Z,466.85
2022-07-26T23:48:46.856Z,465.88
2022-07-26T23:51:14.428Z,460.77
2022-07-26T23:53:42.294Z,372.98
2022-07-26T23:56:09.945Z,357.50
2022-07-26T23:58:39.321Z,464.23
